This is the latest recevied weather packets stored in our database for station/object KE8URB. If no packets are shown the sender has not sent any weather packets the latest 10 day(s).
| Time | Temp. | Humidity | Pressure | Rain* | Wind** | Luminosity | Snow |
|---|---|---|---|---|---|---|---|
| 1787610056 | 21.67° C | 64% | 1017.8 hPa | 0 mm | - | 97 W/m² | - |
| 1787609751 | 21.67° C | 64% | 1017.8 hPa | 0 mm | - | 42 W/m² | - |
| 1787609446 | 22.78° C | 64% | 1017.8 hPa | 0 mm | - | 221 W/m² | - |
| 1787609145 | 22.78° C | 64% | 1017.5 hPa | 0 mm | - | 204 W/m² | - |
| 1787608840 | 22.22° C | 63% | 1017.8 hPa | 0 mm | - | 217 W/m² | - |
| 1787608539 | 21.67° C | 66% | 1017.5 hPa | 0 mm | - | 169 W/m² | - |
| 1787608236 | 21.67° C | 64% | 1017.7 hPa | 0 mm | - | 40 W/m² | - |
| 1787607932 | 22.78° C | 66% | 1017.5 hPa | 0 mm | - | 110 W/m² | - |
| 1787607629 | 22.78° C | 65% | 1017.4 hPa | 0 mm | - | 284 W/m² | - |
| 1787607325 | 22.78° C | 62% | 1017.7 hPa | 0 mm | - | 277 W/m² | - |
| 1787607022 | 22.78° C | 66% | 1017.7 hPa | 0 mm | - | 285 W/m² | - |
| 1787606720 | 22.78° C | 63% | 1017.2 hPa | 0 mm | - | 323 W/m² | - |
| 1787606415 | 22.78° C | 65% | 1017.3 hPa | 0 mm | - | 338 W/m² | - |
| 1787606115 | 22.78° C | 66% | 1017.4 hPa | 0 mm | - | 359 W/m² | - |
| 1787605814 | 22.78° C | 63% | 1017.5 hPa | 0 mm | - | 377 W/m² | - |
| 1787605508 | 22.22° C | 62% | 1017.7 hPa | 0 mm | - | 377 W/m² | - |
| 1787605204 | 22.78° C | 63% | 1017.4 hPa | 0 mm | - | 359 W/m² | - |
| 1787604904 | 21.11° C | 66% | 1017.8 hPa | 0 mm | - | 324 W/m² | - |
| 1787604598 | 21.11° C | 65% | 1017.7 hPa | 0 mm | - | 71 W/m² | - |
| 1787604298 | 21.67° C | 66% | 1017.4 hPa | 0 mm | - | 79 W/m² | - |
| 1787603994 | 22.22° C | 64% | 1017.4 hPa | 0 mm | - | 260 W/m² | - |
| 1787603693 | 22.78° C | 65% | 1017.3 hPa | 0 mm | - | 511 W/m² | - |
| 1787603388 | 22.78° C | 65% | 1017.4 hPa | 0 mm | - | 482 W/m² | - |
| 1787603084 | 22.22° C | 63% | 1017.7 hPa | 0 mm | - | 494 W/m² | - |
| 1787602781 | 22.78° C | 64% | 1017.5 hPa | 0 mm | - | 484 W/m² | - |
* Rain latest hour (hover to see other rain measurements)
** Current wind speed in m/s (hover to see current wind gust speed)